sensor_id;sensor_type;location;lat;lon;timestamp;pressure;altitude;pressure_sealevel;temperature;humidity
73143;BME280;61343;53.694;9.988;2022-09-30T00:01:34;100379.13;;;9.39;96.49
73143;BME280;61343;53.694;9.988;2022-09-30T00:04:00;100374.84;;;9.38;96.97
73143;BME280;61343;53.694;9.988;2022-09-30T00:06:27;100383.47;;;9.40;96.48
73143;BME280;61343;53.694;9.988;2022-09-30T00:08:54;100390.88;;;9.38;95.58
73143;BME280;61343;53.694;9.988;2022-09-30T00:11:22;100390.69;;;9.33;95.59
73143;BME280;61343;53.694;9.988;2022-09-30T00:13:50;100386.16;;;9.33;95.91
73143;BME280;61343;53.694;9.988;2022-09-30T00:16:18;100384.53;;;9.32;96.09
73143;BME280;61343;53.694;9.988;2022-09-30T00:18:43;100388.47;;;9.30;96.43
73143;BME280;61343;53.694;9.988;2022-09-30T00:21:10;100382.31;;;9.29;96.63
73143;BME280;61343;53.694;9.988;2022-09-30T00:23:37;100384.97;;;9.29;96.44
73143;BME280;61343;53.694;9.988;2022-09-30T00:26:07;100391.72;;;9.32;96.76
73143;BME280;61343;53.694;9.988;2022-09-30T00:28:34;100390.50;;;9.28;96.96
73143;BME280;61343;53.694;9.988;2022-09-30T00:31:01;100397.91;;;9.26;97.37
73143;BME280;61343;53.694;9.988;2022-09-30T00:33:27;100399.97;;;9.24;97.96
73143;BME280;61343;53.694;9.988;2022-09-30T00:35:53;100401.63;;;9.18;97.92
73143;BME280;61343;53.694;9.988;2022-09-30T00:38:18;100399.19;;;9.17;98.08
73143;BME280;61343;53.694;9.988;2022-09-30T00:40:44;100395.25;;;9.26;97.83
73143;BME280;61343;53.694;9.988;2022-09-30T00:43:12;100401.63;;;9.18;97.99
73143;BME280;61343;53.694;9.988;2022-09-30T00:45:42;100405.75;;;9.21;97.70
73143;BME280;61343;53.694;9.988;2022-09-30T00:48:19;100397.09;;;9.25;97.81
73143;BME280;61343;53.694;9.988;2022-09-30T00:50:48;100400.78;;;9.24;97.69
73143;BME280;61343;53.694;9.988;2022-09-30T00:53:29;100403.25;;;9.26;97.19
73143;BME280;61343;53.694;9.988;2022-09-30T00:56:21;100405.31;;;9.24;97.46
73143;BME280;61343;53.694;9.988;2022-09-30T00:58:55;100397.97;;;9.13;97.33
73143;BME280;61343;53.694;9.988;2022-09-30T01:01:26;100403.94;;;9.08;97.88
73143;BME280;61343;53.694;9.988;2022-09-30T01:03:59;100396.78;;;9.09;97.83
73143;BME280;61343;53.694;9.988;2022-09-30T01:06:25;100399.22;;;9.10;97.89
73143;BME280;61343;53.694;9.988;2022-09-30T01:08:52;100405.19;;;9.06;97.98
73143;BME280;61343;53.694;9.988;2022-09-30T01:11:17;100401.91;;;9.04;97.62
73143;BME280;61343;53.694;9.988;2022-09-30T01:13:47;100410.94;;;9.03;97.67
73143;BME280;61343;53.694;9.988;2022-09-30T01:22:03;100417.31;;;9.02;97.56
73143;BME280;61343;53.694;9.988;2022-09-30T01:36:23;100408.31;;;8.89;98.28
73143;BME280;61343;53.694;9.988;2022-09-30T01:39:12;100417.38;;;8.88;96.59
73143;BME280;61343;53.694;9.988;2022-09-30T01:41:56;100419.00;;;8.83;96.37
73143;BME280;61343;53.694;9.988;2022-09-30T01:44:47;100417.63;;;8.74;96.73
73143;BME280;61343;53.694;9.988;2022-09-30T01:47:26;100424.16;;;8.71;96.60
73143;BME280;61343;53.694;9.988;2022-09-30T01:50:06;100416.16;;;8.71;96.52
73143;BME280;61343;53.694;9.988;2022-09-30T01:52:52;100416.97;;;8.72;96.29
73143;BME280;61343;53.694;9.988;2022-09-30T01:55:46;100425.41;;;8.62;96.50
73143;BME280;61343;53.694;9.988;2022-09-30T01:58:31;100422.75;;;8.62;97.15
73143;BME280;61343;53.694;9.988;2022-09-30T02:01:01;100424.38;;;8.70;96.33
73143;BME280;61343;53.694;9.988;2022-09-30T02:03:33;100414.53;;;8.70;96.08
73143;BME280;61343;53.694;9.988;2022-09-30T02:06:05;100419.47;;;8.73;96.42
73143;BME280;61343;53.694;9.988;2022-09-30T02:08:38;100428.47;;;8.72;95.61
73143;BME280;61343;53.694;9.988;2022-09-30T02:11:13;100427.25;;;8.68;94.98
73143;BME280;61343;53.694;9.988;2022-09-30T02:13:48;100428.88;;;8.69;95.16
73143;BME280;61343;53.694;9.988;2022-09-30T02:16:20;100435.88;;;8.57;94.80
73143;BME280;61343;53.694;9.988;2022-09-30T02:18:49;100438.38;;;8.46;94.60
73143;BME280;61343;53.694;9.988;2022-09-30T02:21:19;100437.75;;;8.37;94.73
73143;BME280;61343;53.694;9.988;2022-09-30T02:23:49;100444.50;;;8.33;94.74
73143;BME280;61343;53.694;9.988;2022-09-30T02:26:20;100447.00;;;8.34;95.33
73143;BME280;61343;53.694;9.988;2022-09-30T02:28:51;100448.19;;;8.38;94.95
73143;BME280;61343;53.694;9.988;2022-09-30T02:31:19;100449.84;;;8.46;94.44
73143;BME280;61343;53.694;9.988;2022-09-30T02:33:59;100452.28;;;8.54;94.18
73143;BME280;61343;53.694;9.988;2022-09-30T02:36:31;100449.63;;;8.54;94.12
73143;BME280;61343;53.694;9.988;2022-09-30T02:39:00;100451.09;;;8.50;94.90
73143;BME280;61343;53.694;9.988;2022-09-30T02:41:28;100454.34;;;8.52;95.21
73143;BME280;61343;53.694;9.988;2022-09-30T02:43:55;100455.19;;;8.46;95.19
73143;BME280;61343;53.694;9.988;2022-09-30T02:46:30;100454.75;;;8.36;97.61
73143;BME280;61343;53.694;9.988;2022-09-30T02:49:06;100456.00;;;8.40;97.05
73143;BME280;61343;53.694;9.988;2022-09-30T02:57:04;100465.41;;;8.43;95.72
73143;BME280;61343;53.694;9.988;2022-09-30T02:59:33;100461.53;;;8.45;95.48
73143;BME280;61343;53.694;9.988;2022-09-30T03:01:58;100462.53;;;8.51;95.50
73143;BME280;61343;53.694;9.988;2022-09-30T03:04:26;100460.28;;;8.54;95.95
73143;BME280;61343;53.694;9.988;2022-09-30T03:06:53;100464.00;;;8.53;96.96
73143;BME280;61343;53.694;9.988;2022-09-30T03:09:26;100468.09;;;8.56;97.32
73143;BME280;61343;53.694;9.988;2022-09-30T03:12:04;100466.44;;;8.55;97.54
73143;BME280;61343;53.694;9.988;2022-09-30T03:14:38;100467.88;;;8.57;96.92
73143;BME280;61343;53.694;9.988;2022-09-30T03:20:05;100480.56;;;8.68;97.16
73143;BME280;61343;53.694;9.988;2022-09-30T03:25:22;100487.13;;;8.72;97.84
73143;BME280;61343;53.694;9.988;2022-09-30T03:30:18;100476.69;;;8.64;99.12
73143;BME280;61343;53.694;9.988;2022-09-30T03:48:58;100486.72;;;8.82;98.61
73143;BME280;61343;53.694;9.988;2022-09-30T03:51:26;100486.28;;;8.85;99.08
73143;BME280;61343;53.694;9.988;2022-09-30T03:53:54;100488.31;;;8.89;98.75
73143;BME280;61343;53.694;9.988;2022-09-30T03:56:24;100488.31;;;8.89;98.30
73143;BME280;61343;53.694;9.988;2022-09-30T03:58:50;100496.31;;;8.89;98.88
73143;BME280;61343;53.694;9.988;2022-09-30T04:01:17;100497.13;;;8.90;98.81
73143;BME280;61343;53.694;9.988;2022-09-30T04:03:45;100494.47;;;8.83;99.17
73143;BME280;61343;53.694;9.988;2022-09-30T04:06:12;100486.28;;;8.91;99.13
73143;BME280;61343;53.694;9.988;2022-09-30T04:08:38;100495.72;;;8.87;98.84
73143;BME280;61343;53.694;9.988;2022-09-30T04:11:03;100498.56;;;8.86;98.90
73143;BME280;61343;53.694;9.988;2022-09-30T04:13:29;100498.97;;;8.89;98.85
73143;BME280;61343;53.694;9.988;2022-09-30T04:15:55;100504.13;;;8.84;99.08
73143;BME280;61343;53.694;9.988;2022-09-30T04:18:20;100508.63;;;8.90;99.08
73143;BME280;61343;53.694;9.988;2022-09-30T04:20:45;100501.88;;;8.81;99.67
73143;BME280;61343;53.694;9.988;2022-09-30T04:23:11;100508.63;;;8.84;99.66
73143;BME280;61343;53.694;9.988;2022-09-30T04:25:36;100515.63;;;8.85;99.62
73143;BME280;61343;53.694;9.988;2022-09-30T04:28:01;100513.38;;;8.88;99.46
73143;BME280;61343;53.694;9.988;2022-09-30T04:30:27;100519.13;;;8.85;99.38
73143;BME280;61343;53.694;9.988;2022-09-30T04:32:52;100519.50;;;8.89;99.54
73143;BME280;61343;53.694;9.988;2022-09-30T04:35:17;100529.38;;;8.88;99.84
73143;BME280;61343;53.694;9.988;2022-09-30T04:37:44;100528.94;;;8.91;100.00
73143;BME280;61343;53.694;9.988;2022-09-30T04:40:10;100528.50;;;8.94;99.51
73143;BME280;61343;53.694;9.988;2022-09-30T04:42:37;100523.81;;;8.96;99.56
73143;BME280;61343;53.694;9.988;2022-09-30T04:45:03;100531.41;;;9.00;99.20
73143;BME280;61343;53.694;9.988;2022-09-30T04:47:29;100534.88;;;9.00;99.29
73143;BME280;61343;53.694;9.988;2022-09-30T04:49:55;100541.66;;;9.03;99.20
73143;BME280;61343;53.694;9.988;2022-09-30T04:52:21;100544.91;;;9.05;98.97
73143;BME280;61343;53.694;9.988;2022-09-30T04:54:46;100542.47;;;9.03;98.96
73143;BME280;61343;53.694;9.988;2022-09-30T04:57:12;100555.41;;;9.00;98.66
73143;BME280;61343;53.694;9.988;2022-09-30T04:59:38;100553.56;;;9.00;98.78
73143;BME280;61343;53.694;9.988;2022-09-30T05:02:03;100561.75;;;9.05;99.03
73143;BME280;61343;53.694;9.988;2022-09-30T05:04:29;100565.66;;;9.03;99.05
73143;BME280;61343;53.694;9.988;2022-09-30T05:06:55;100556.00;;;9.02;99.15
73143;BME280;61343;53.694;9.988;2022-09-30T05:09:20;100560.72;;;9.00;98.46
73143;BME280;61343;53.694;9.988;2022-09-30T05:11:46;100567.69;;;9.01;98.87
73143;BME280;61343;53.694;9.988;2022-09-30T05:14:11;100567.50;;;9.02;98.75
73143;BME280;61343;53.694;9.988;2022-09-30T05:16:36;100574.06;;;9.06;98.77
73143;BME280;61343;53.694;9.988;2022-09-30T05:19:02;100565.84;;;9.08;98.20
73143;BME280;61343;53.694;9.988;2022-09-30T05:21:27;100569.09;;;9.10;98.26
73143;BME280;61343;53.694;9.988;2022-09-30T05:23:53;100569.94;;;9.04;98.14
73143;BME280;61343;53.694;9.988;2022-09-30T05:26:18;100571.19;;;9.08;98.10
73143;BME280;61343;53.694;9.988;2022-09-30T05:28:43;100572.41;;;9.12;98.09
73143;BME280;61343;53.694;9.988;2022-09-30T05:31:09;100579.19;;;9.14;98.13
73143;BME280;61343;53.694;9.988;2022-09-30T05:33:36;100576.50;;;9.08;97.57
73143;BME280;61343;53.694;9.988;2022-09-30T05:36:05;100586.56;;;9.06;97.83
73143;BME280;61343;53.694;9.988;2022-09-30T05:38:32;100590.88;;;9.07;97.96
73143;BME280;61343;53.694;9.988;2022-09-30T05:41:03;100594.56;;;9.06;97.79
73143;BME280;61343;53.694;9.988;2022-09-30T05:43:30;100589.66;;;9.03;98.04
73143;BME280;61343;53.694;9.988;2022-09-30T05:45:56;100586.56;;;9.06;97.92
73143;BME280;61343;53.694;9.988;2022-09-30T05:48:23;100584.09;;;9.11;98.07
73143;BME280;61343;53.694;9.988;2022-09-30T05:50:56;100595.78;;;9.10;97.30
73143;BME280;61343;53.694;9.988;2022-09-30T05:53:22;100579.78;;;9.10;97.58
73143;BME280;61343;53.694;9.988;2022-09-30T05:55:48;100584.69;;;9.13;97.74
73143;BME280;61343;53.694;9.988;2022-09-30T05:58:15;100585.13;;;9.10;97.38
73143;BME280;61343;53.694;9.988;2022-09-30T06:00:42;100583.09;;;9.12;97.59
73143;BME280;61343;53.694;9.988;2022-09-30T06:03:08;100575.69;;;9.14;97.48
73143;BME280;61343;53.694;9.988;2022-09-30T06:05:33;100588.00;;;9.15;97.10
73143;BME280;61343;53.694;9.988;2022-09-30T06:07:58;100594.16;;;9.09;97.70
73143;BME280;61343;53.694;9.988;2022-09-30T06:10:23;100594.56;;;9.06;97.05
73143;BME280;61343;53.694;9.988;2022-09-30T06:12:49;100599.50;;;9.09;97.01
73143;BME280;61343;53.694;9.988;2022-09-30T06:15:14;100604.44;;;8.98;97.58
73143;BME280;61343;53.694;9.988;2022-09-30T06:17:39;100595.59;;;9.05;97.69
73143;BME280;61343;53.694;9.988;2022-09-30T06:20:08;100603.78;;;9.10;97.77
73143;BME280;61343;53.694;9.988;2022-09-30T06:22:34;100613.03;;;9.14;97.50
73143;BME280;61343;53.694;9.988;2022-09-30T06:25:01;100614.88;;;9.20;97.07
73143;BME280;61343;53.694;9.988;2022-09-30T06:27:26;100613.41;;;9.30;97.91
73143;BME280;61343;53.694;9.988;2022-09-30T06:29:52;100609.28;;;9.41;97.58
73143;BME280;61343;53.694;9.988;2022-09-30T06:32:17;100607.28;;;9.30;96.60
73143;BME280;61343;53.694;9.988;2022-09-30T06:34:42;100610.56;;;9.19;96.94
73143;BME280;61343;53.694;9.988;2022-09-30T06:37:08;100607.69;;;9.27;96.80
73143;BME280;61343;53.694;9.988;2022-09-30T06:39:35;100610.34;;;9.27;97.05
73143;BME280;61343;53.694;9.988;2022-09-30T06:42:00;100611.75;;;9.36;96.80
73143;BME280;61343;53.694;9.988;2022-09-30T06:44:26;100630.06;;;9.26;96.61
73143;BME280;61343;53.694;9.988;2022-09-30T06:46:52;100626.13;;;9.35;95.34
73143;BME280;61343;53.694;9.988;2022-09-30T06:49:17;100636.41;;;9.38;95.82
73143;BME280;61343;53.694;9.988;2022-09-30T06:51:42;100623.66;;;9.40;95.87
73143;BME280;61343;53.694;9.988;2022-09-30T06:54:08;100624.69;;;9.39;95.99
73143;BME280;61343;53.694;9.988;2022-09-30T06:56:34;100626.94;;;9.42;96.51
73143;BME280;61343;53.694;9.988;2022-09-30T06:58:59;100631.84;;;9.45;95.70
73143;BME280;61343;53.694;9.988;2022-09-30T07:01:25;100626.72;;;9.50;96.31
73143;BME280;61343;53.694;9.988;2022-09-30T07:03:51;100624.06;;;9.50;96.32
73143;BME280;61343;53.694;9.988;2022-09-30T07:06:21;100622.41;;;9.49;96.57
73143;BME280;61343;53.694;9.988;2022-09-30T07:08:47;100629.34;;;9.57;96.35
73143;BME280;61343;53.694;9.988;2022-09-30T07:11:12;100628.94;;;9.60;96.56
73143;BME280;61343;53.694;9.988;2022-09-30T07:13:44;100629.34;;;9.63;96.30
73143;BME280;61343;53.694;9.988;2022-09-30T07:16:11;100630.97;;;9.71;96.49
73143;BME280;61343;53.694;9.988;2022-09-30T07:18:38;100625.66;;;9.71;96.35
73143;BME280;61343;53.694;9.988;2022-09-30T07:21:04;100628.25;;;9.77;96.42
73143;BME280;61343;53.694;9.988;2022-09-30T07:23:30;100630.09;;;9.83;96.03
73143;BME280;61343;53.694;9.988;2022-09-30T07:26:00;100626.38;;;9.91;95.60
73143;BME280;61343;53.694;9.988;2022-09-30T07:28:31;100632.31;;;9.93;95.88
73143;BME280;61343;53.694;9.988;2022-09-30T07:31:00;100629.84;;;9.98;95.78
73143;BME280;61343;53.694;9.988;2022-09-30T07:33:27;100628.38;;;10.08;95.67
73143;BME280;61343;53.694;9.988;2022-09-30T07:35:56;100631.25;;;10.14;95.30
73143;BME280;61343;53.694;9.988;2022-09-30T07:38:24;100636.75;;;10.19;94.88
73143;BME280;61343;53.694;9.988;2022-09-30T07:40:54;100633.22;;;10.25;95.57
73143;BME280;61343;53.694;9.988;2022-09-30T07:43:21;100637.13;;;10.29;94.47
73143;BME280;61343;53.694;9.988;2022-09-30T07:45:47;100629.91;;;10.36;94.27
73143;BME280;61343;53.694;9.988;2022-09-30T07:48:13;100642.19;;;10.43;94.66
73143;BME280;61343;53.694;9.988;2022-09-30T07:50:59;100638.44;;;10.51;94.40
73143;BME280;61343;53.694;9.988;2022-09-30T07:53:24;100642.31;;;10.55;94.09
73143;BME280;61343;53.694;9.988;2022-09-30T07:55:50;100641.44;;;10.61;94.09
73143;BME280;61343;53.694;9.988;2022-09-30T07:58:15;100643.25;;;10.67;93.53
73143;BME280;61343;53.694;9.988;2022-09-30T08:00:40;100653.09;;;10.73;93.53
73143;BME280;61343;53.694;9.988;2022-09-30T08:03:06;100646.44;;;10.82;93.58
73143;BME280;61343;53.694;9.988;2022-09-30T08:05:38;100652.78;;;10.88;92.64
73143;BME280;61343;53.694;9.988;2022-09-30T08:08:04;100658.28;;;10.93;92.66
73143;BME280;61343;53.694;9.988;2022-09-30T08:10:33;100658.25;;;10.99;92.37
73143;BME280;61343;53.694;9.988;2022-09-30T08:12:58;100652.63;;;11.07;92.91
73143;BME280;61343;53.694;9.988;2022-09-30T08:15:23;100656.88;;;11.15;92.40
73143;BME280;61343;53.694;9.988;2022-09-30T08:17:49;100653.09;;;11.23;92.48
73143;BME280;61343;53.694;9.988;2022-09-30T08:20:14;100649.69;;;11.34;91.71
73143;BME280;61343;53.694;9.988;2022-09-30T08:22:39;100646.16;;;11.40;91.96
73143;BME280;61343;53.694;9.988;2022-09-30T08:25:05;100644.09;;;11.42;90.45
73143;BME280;61343;53.694;9.988;2022-09-30T08:27:30;100658.38;;;11.54;89.86
73143;BME280;61343;53.694;9.988;2022-09-30T08:29:55;100656.06;;;11.57;89.58
73143;BME280;61343;53.694;9.988;2022-09-30T08:32:20;100660.63;;;11.57;89.55
73143;BME280;61343;53.694;9.988;2022-09-30T08:34:46;100662.25;;;11.58;89.23
73143;BME280;61343;53.694;9.988;2022-09-30T08:37:11;100661.34;;;11.64;88.91
73143;BME280;61343;53.694;9.988;2022-09-30T08:39:37;100662.34;;;11.69;88.90
73143;BME280;61343;53.694;9.988;2022-09-30T08:42:30;100659.31;;;11.84;87.58
73143;BME280;61343;53.694;9.988;2022-09-30T08:45:11;100667.97;;;11.86;87.54
73143;BME280;61343;53.694;9.988;2022-09-30T08:47:46;100664.66;;;11.84;86.78
73143;BME280;61343;53.694;9.988;2022-09-30T08:50:27;100662.34;;;11.88;86.16
73143;BME280;61343;53.694;9.988;2022-09-30T08:52:59;100660.63;;;11.93;86.12
73143;BME280;61343;53.694;9.988;2022-09-30T08:55:30;100666.75;;;12.00;86.76
73143;BME280;61343;53.694;9.988;2022-09-30T08:57:58;100669.56;;;12.05;87.13
73143;BME280;61343;53.694;9.988;2022-09-30T09:00:25;100673.22;;;12.11;87.37
73143;BME280;61343;53.694;9.988;2022-09-30T09:02:54;100670.44;;;12.17;88.24
73143;BME280;61343;53.694;9.988;2022-09-30T09:05:46;100673.44;;;12.27;86.76
73143;BME280;61343;53.694;9.988;2022-09-30T09:08:30;100673.69;;;12.38;85.52
73143;BME280;61343;53.694;9.988;2022-09-30T09:11:16;100674.88;;;12.42;84.74
73143;BME280;61343;53.694;9.988;2022-09-30T09:19:36;100684.34;;;12.44;83.22
73143;BME280;61343;53.694;9.988;2022-09-30T09:22:02;100667.47;;;12.55;83.11
73143;BME280;61343;53.694;9.988;2022-09-30T09:24:42;100670.88;;;12.62;82.26
73143;BME280;61343;53.694;9.988;2022-09-30T09:30:15;100668.00;;;12.75;82.21
73143;BME280;61343;53.694;9.988;2022-09-30T09:32:54;100675.59;;;12.78;81.40
73143;BME280;61343;53.694;9.988;2022-09-30T09:38:26;100674.09;;;12.94;80.03
73143;BME280;61343;53.694;9.988;2022-09-30T09:41:11;100681.22;;;12.88;80.37
73143;BME280;61343;53.694;9.988;2022-09-30T09:48:48;100681.69;;;12.85;82.00
73143;BME280;61343;53.694;9.988;2022-09-30T09:51:26;100682.75;;;12.96;82.13
73143;BME280;61343;53.694;9.988;2022-09-30T09:53:53;100682.88;;;13.01;81.88
73143;BME280;61343;53.694;9.988;2022-09-30T09:56:26;100685.75;;;12.88;80.69
73143;BME280;61343;53.694;9.988;2022-09-30T09:59:07;100681.59;;;12.92;80.64
73143;BME280;61343;53.694;9.988;2022-09-30T10:01:36;100688.09;;;12.96;81.32
73143;BME280;61343;53.694;9.988;2022-09-30T10:04:21;100688.94;;;12.97;81.10
73143;BME280;61343;53.694;9.988;2022-09-30T10:06:58;100692.34;;;13.04;81.35
73143;BME280;61343;53.694;9.988;2022-09-30T10:09:37;100693.75;;;13.06;80.70
73143;BME280;61343;53.694;9.988;2022-09-30T10:14:47;100691.94;;;13.18;81.26
73143;BME280;61343;53.694;9.988;2022-09-30T10:17:21;100696.59;;;13.23;80.71
73143;BME280;61343;53.694;9.988;2022-09-30T10:19:49;100697.06;;;13.31;80.11
73143;BME280;61343;53.694;9.988;2022-09-30T10:22:18;100698.38;;;13.40;80.25
73143;BME280;61343;53.694;9.988;2022-09-30T10:24:44;100700.09;;;13.23;77.92
73143;BME280;61343;53.694;9.988;2022-09-30T10:27:29;100691.69;;;13.31;78.24
73143;BME280;61343;53.694;9.988;2022-09-30T10:29:57;100696.84;;;13.45;78.11
73143;BME280;61343;53.694;9.988;2022-09-30T10:32:23;100694.06;;;13.39;77.96
73143;BME280;61343;53.694;9.988;2022-09-30T10:35:11;100698.50;;;13.46;78.94
73143;BME280;61343;53.694;9.988;2022-09-30T10:37:50;100691.84;;;13.36;77.76
73143;BME280;61343;53.694;9.988;2022-09-30T10:40:17;100696.97;;;13.26;76.60
73143;BME280;61343;53.694;9.988;2022-09-30T10:42:45;100702.81;;;13.47;75.49
73143;BME280;61343;53.694;9.988;2022-09-30T10:45:23;100701.66;;;13.54;75.72
73143;BME280;61343;53.694;9.988;2022-09-30T10:47:52;100702.69;;;13.53;77.35
73143;BME280;61343;53.694;9.988;2022-09-30T10:50:21;100704.09;;;13.56;76.63
73143;BME280;61343;53.694;9.988;2022-09-30T10:53:24;100706.44;;;13.64;76.82
73143;BME280;61343;53.694;9.988;2022-09-30T10:55:49;100695.69;;;13.87;75.83
73143;BME280;61343;53.694;9.988;2022-09-30T10:58:22;100698.47;;;13.92;76.77
73143;BME280;61343;53.694;9.988;2022-09-30T11:01:14;100703.75;;;13.87;77.04
73143;BME280;61343;53.694;9.988;2022-09-30T11:06:27;100706.88;;;13.95;76.22
73143;BME280;61343;53.694;9.988;2022-09-30T11:09:05;100697.25;;;14.11;74.16
73143;BME280;61343;53.694;9.988;2022-09-30T11:11:37;100703.13;;;14.08;74.75
73143;BME280;61343;53.694;9.988;2022-09-30T11:16:51;100701.34;;;14.14;74.54
73143;BME280;61343;53.694;9.988;2022-09-30T11:24:56;100695.13;;;14.36;73.60
73143;BME280;61343;53.694;9.988;2022-09-30T11:36:03;100681.94;;;14.80;70.74
73143;BME280;61343;53.694;9.988;2022-09-30T11:41:37;100685.22;;;14.82;68.59
73143;BME280;61343;53.694;9.988;2022-09-30T11:44:20;100679.91;;;14.87;67.04
73143;BME280;61343;53.694;9.988;2022-09-30T11:52:34;100674.81;;;14.74;66.28
73143;BME280;61343;53.694;9.988;2022-09-30T11:58:16;100684.56;;;14.46;67.67
73143;BME280;61343;53.694;9.988;2022-09-30T12:00:47;100681.09;;;14.34;67.83
73143;BME280;61343;53.694;9.988;2022-09-30T12:03:21;100689.66;;;14.20;68.35
73143;BME280;61343;53.694;9.988;2022-09-30T12:05:56;100679.81;;;14.25;68.79
73143;BME280;61343;53.694;9.988;2022-09-30T12:08:46;100686.22;;;14.24;69.08
73143;BME280;61343;53.694;9.988;2022-09-30T12:11:19;100678.03;;;14.31;68.59
73143;BME280;61343;53.694;9.988;2022-09-30T12:13:53;100679.66;;;14.43;68.00
73143;BME280;61343;53.694;9.988;2022-09-30T12:16:23;100680.50;;;14.61;66.80
73143;BME280;61343;53.694;9.988;2022-09-30T12:19:00;100679.88;;;14.70;67.48
73143;BME280;61343;53.694;9.988;2022-09-30T12:21:37;100688.25;;;15.02;64.72
73143;BME280;61343;53.694;9.988;2022-09-30T12:24:17;100690.34;;;15.00;63.45
73143;BME280;61343;53.694;9.988;2022-09-30T12:26:44;100687.84;;;15.10;65.18
73143;BME280;61343;53.694;9.988;2022-09-30T12:32:39;100680.91;;;15.14;65.67
73143;BME280;61343;53.694;9.988;2022-09-30T12:38:36;100680.06;;;14.97;65.42
73143;BME280;61343;53.694;9.988;2022-09-30T12:49:25;100680.06;;;14.97;68.37
73143;BME280;61343;53.694;9.988;2022-09-30T12:51:57;100682.19;;;14.95;65.88
73143;BME280;61343;53.694;9.988;2022-09-30T12:56:58;100676.31;;;15.15;63.47
73143;BME280;61343;53.694;9.988;2022-09-30T12:59:28;100676.09;;;15.16;64.87
73143;BME280;61343;53.694;9.988;2022-09-30T13:01:55;100677.16;;;14.98;64.93
73143;BME280;61343;53.694;9.988;2022-09-30T13:04:38;100677.47;;;15.02;63.33
73143;BME280;61343;53.694;9.988;2022-09-30T13:07:36;100664.34;;;15.22;61.67
73143;BME280;61343;53.694;9.988;2022-09-30T13:10:27;100675.59;;;15.19;60.46
73143;BME280;61343;53.694;9.988;2022-09-30T13:15:40;100663.75;;;15.53;59.12
73143;BME280;61343;53.694;9.988;2022-09-30T13:23:48;100668.19;;;15.26;60.94
73143;BME280;61343;53.694;9.988;2022-09-30T13:31:25;100665.69;;;15.41;58.62
73143;BME280;61343;53.694;9.988;2022-09-30T13:36:37;100679.38;;;15.51;58.91
73143;BME280;61343;53.694;9.988;2022-09-30T13:39:19;100669.47;;;15.07;60.02
73143;BME280;61343;53.694;9.988;2022-09-30T13:45:01;100665.06;;;15.34;59.40
73143;BME280;61343;53.694;9.988;2022-09-30T13:50:17;100660.06;;;15.43;58.28
73143;BME280;61343;53.694;9.988;2022-09-30T13:52:50;100650.22;;;15.48;58.92
73143;BME280;61343;53.694;9.988;2022-09-30T13:55:21;100651.97;;;15.43;58.95
73143;BME280;61343;53.694;9.988;2022-09-30T13:58:00;100650.59;;;15.40;58.88
73143;BME280;61343;53.694;9.988;2022-09-30T14:00:44;100648.47;;;15.42;59.29
73143;BME280;61343;53.694;9.988;2022-09-30T14:05:51;100642.34;;;15.30;58.92
73143;BME280;61343;53.694;9.988;2022-09-30T14:08:29;100642.84;;;15.44;59.05
73143;BME280;61343;53.694;9.988;2022-09-30T14:13:54;100648.25;;;15.27;59.58
73143;BME280;61343;53.694;9.988;2022-09-30T14:22:14;100652.31;;;15.30;57.87
73143;BME280;61343;53.694;9.988;2022-09-30T14:24:40;100650.00;;;15.38;58.25
73143;BME280;61343;53.694;9.988;2022-09-30T14:32:51;100643.19;;;15.14;60.09
73143;BME280;61343;53.694;9.988;2022-09-30T14:35:20;100639.69;;;15.14;59.67
73143;BME280;61343;53.694;9.988;2022-09-30T14:40:19;100649.09;;;15.11;60.06
73143;BME280;61343;53.694;9.988;2022-09-30T14:42:48;100636.16;;;15.13;60.47
73143;BME280;61343;53.694;9.988;2022-09-30T14:45:24;100640.16;;;15.27;60.01
73143;BME280;61343;53.694;9.988;2022-09-30T14:47:54;100625.69;;;15.33;58.90
73143;BME280;61343;53.694;9.988;2022-09-30T14:50:25;100632.22;;;15.37;59.30
73143;BME280;61343;53.694;9.988;2022-09-30T14:52:52;100623.03;;;15.72;57.46
73143;BME280;61343;53.694;9.988;2022-09-30T14:55:33;100620.63;;;15.53;59.23
73143;BME280;61343;53.694;9.988;2022-09-30T15:01:12;100634.94;;;15.21;59.80
73143;BME280;61343;53.694;9.988;2022-09-30T15:03:42;100638.94;;;15.18;59.93
73143;BME280;61343;53.694;9.988;2022-09-30T15:06:27;100634.38;;;15.19;60.98
73143;BME280;61343;53.694;9.988;2022-09-30T15:09:03;100632.44;;;15.14;60.56
73143;BME280;61343;53.694;9.988;2022-09-30T15:11:30;100629.00;;;15.02;61.29
73143;BME280;61343;53.694;9.988;2022-09-30T15:14:17;100633.78;;;15.00;60.76
73143;BME280;61343;53.694;9.988;2022-09-30T15:16:49;100637.38;;;14.89;60.71
73143;BME280;61343;53.694;9.988;2022-09-30T15:19:21;100635.66;;;14.83;61.10
73143;BME280;61343;53.694;9.988;2022-09-30T15:21:48;100637.53;;;14.82;61.93
73143;BME280;61343;53.694;9.988;2022-09-30T15:24:16;100629.72;;;14.81;61.26
73143;BME280;61343;53.694;9.988;2022-09-30T15:26:42;100638.53;;;14.93;62.31
73143;BME280;61343;53.694;9.988;2022-09-30T15:29:12;100641.66;;;15.01;62.28
73143;BME280;61343;53.694;9.988;2022-09-30T15:31:46;100638.03;;;15.13;61.06
73143;BME280;61343;53.694;9.988;2022-09-30T15:34:18;100625.72;;;15.00;60.65
73143;BME280;61343;53.694;9.988;2022-09-30T15:36:55;100629.00;;;15.02;62.13
73143;BME280;61343;53.694;9.988;2022-09-30T15:39:23;100623.13;;;15.05;61.20
73143;BME280;61343;53.694;9.988;2022-09-30T15:42:13;100624.50;;;14.91;62.63
73143;BME280;61343;53.694;9.988;2022-09-30T15:44:51;100625.91;;;14.93;62.28
73143;BME280;61343;53.694;9.988;2022-09-30T15:47:16;100628.41;;;15.00;62.04
73143;BME280;61343;53.694;9.988;2022-09-30T15:49:46;100631.94;;;14.84;62.18
73143;BME280;61343;53.694;9.988;2022-09-30T15:54:52;100635.81;;;14.76;64.29
73143;BME280;61343;53.694;9.988;2022-09-30T15:57:43;100620.22;;;14.62;63.02